createdAt,value
2019-02-25T00:01:25.072Z,3.70
2019-02-25T00:04:04.513Z,3.80
2019-02-25T00:06:43.740Z,3.70
2019-02-25T00:09:22.978Z,3.80
2019-02-25T00:12:02.219Z,3.80
2019-02-25T00:14:41.253Z,3.70
2019-02-25T00:17:20.334Z,3.80
2019-02-25T00:19:59.363Z,3.70
2019-02-25T00:22:38.504Z,3.70
2019-02-25T00:25:18.358Z,3.70
2019-02-25T00:27:57.527Z,3.70
2019-02-25T00:30:37.353Z,3.70
2019-02-25T00:33:16.358Z,3.60
2019-02-25T00:35:55.619Z,3.70
2019-02-25T00:38:35.399Z,3.70
2019-02-25T00:41:14.507Z,3.90
2019-02-25T00:43:53.675Z,3.70
2019-02-25T00:46:32.637Z,3.90
2019-02-25T00:49:11.808Z,3.70
2019-02-25T00:51:51.829Z,3.50
2019-02-25T00:54:30.792Z,3.70
2019-02-25T00:57:09.849Z,3.50
2019-02-25T00:59:48.793Z,3.50
2019-02-25T01:02:28.153Z,3.60
2019-02-25T01:05:07.527Z,3.60
2019-02-25T01:07:47.401Z,3.70
2019-02-25T01:10:26.419Z,3.60
2019-02-25T01:13:05.291Z,3.40
2019-02-25T01:15:44.423Z,3.40
2019-02-25T01:18:23.770Z,3.60
2019-02-25T01:21:03.527Z,3.50
2019-02-25T01:23:42.430Z,3.40
2019-02-25T01:26:25.545Z,3.30
2019-02-25T01:29:04.976Z,3.60
2019-02-25T01:31:44.132Z,3.90
2019-02-25T01:34:23.120Z,3.50
2019-02-25T01:37:02.283Z,3.30
2019-02-25T01:39:41.452Z,3.40
2019-02-25T01:42:20.495Z,3.30
2019-02-25T01:44:59.503Z,3.20
2019-02-25T01:47:38.749Z,3.40
2019-02-25T01:50:17.975Z,3.40
2019-02-25T01:52:57.967Z,3.30
2019-02-25T01:55:38.031Z,3.20
2019-02-25T01:58:17.815Z,3.10
2019-02-25T02:00:56.724Z,3.30
2019-02-25T02:03:35.739Z,3.30
2019-02-25T02:06:14.789Z,3.00
2019-02-25T02:08:53.916Z,3.20
2019-02-25T02:11:33.271Z,3.10
2019-02-25T02:14:13.214Z,3.10
2019-02-25T02:16:52.272Z,3.00
2019-02-25T02:19:31.339Z,3.20
2019-02-25T02:22:10.355Z,3.20
2019-02-25T02:24:49.623Z,3.20
2019-02-25T02:27:29.655Z,3.10
2019-02-25T02:30:08.719Z,3.20
2019-02-25T02:32:47.693Z,2.90
2019-02-25T02:35:26.628Z,2.90
2019-02-25T02:38:05.588Z,2.90
2019-02-25T02:40:44.618Z,2.90
2019-02-25T02:43:23.902Z,2.80
2019-02-25T02:46:02.951Z,2.90
2019-02-25T02:48:42.083Z,2.90
2019-02-25T02:51:20.954Z,2.80
2019-02-25T02:54:00.819Z,2.80
2019-02-25T02:56:39.763Z,3.00
2019-02-25T02:59:18.927Z,2.80
2019-02-25T03:01:58.494Z,2.70
2019-02-25T03:04:38.095Z,2.70
2019-02-25T03:07:17.351Z,2.60
2019-02-25T03:09:58.817Z,2.70
2019-02-25T03:12:38.232Z,2.80
2019-02-25T03:15:17.290Z,2.80
2019-02-25T03:17:56.331Z,2.90
2019-02-25T03:20:35.505Z,2.80
2019-02-25T03:23:14.782Z,3.00
2019-02-25T03:25:54.798Z,3.00
2019-02-25T03:28:34.645Z,2.90
2019-02-25T03:31:13.784Z,2.80
2019-02-25T03:33:52.747Z,2.80
2019-02-25T03:36:32.087Z,2.70
2019-02-25T03:39:12.028Z,2.60
2019-02-25T03:41:51.435Z,2.60
2019-02-25T03:44:31.104Z,2.50
2019-02-25T03:47:10.050Z,2.70
2019-02-25T03:49:49.106Z,2.60
2019-02-25T03:52:29.169Z,2.70
2019-02-25T03:55:09.000Z,2.70
2019-02-25T03:57:48.075Z,2.80
2019-02-25T04:00:27.191Z,2.90
2019-02-25T04:03:06.224Z,2.90
2019-02-25T04:05:45.219Z,3.10
2019-02-25T04:08:24.238Z,3.00
2019-02-25T04:11:03.302Z,3.20
2019-02-25T04:13:42.419Z,3.20
2019-02-25T04:16:21.811Z,3.10
2019-02-25T04:19:01.623Z,3.00
2019-02-25T04:21:40.925Z,2.80
2019-02-25T04:24:20.034Z,2.60
2019-02-25T04:26:59.127Z,2.50
2019-02-25T04:29:38.107Z,2.50
2019-02-25T04:32:17.092Z,2.60
2019-02-25T04:34:56.108Z,2.40
2019-02-25T04:37:35.373Z,2.30
2019-02-25T04:40:14.752Z,2.20
2019-02-25T04:42:53.805Z,2.50
2019-02-25T04:45:32.896Z,2.30
2019-02-25T04:48:11.925Z,2.40
2019-02-25T04:50:51.287Z,2.10
2019-02-25T04:53:31.182Z,2.10
2019-02-25T04:56:11.381Z,2.20
2019-02-25T04:58:51.208Z,2.20
2019-02-25T05:01:30.115Z,2.20
2019-02-25T05:04:09.187Z,2.10
2019-02-25T05:06:48.135Z,2.20
2019-02-25T05:09:27.258Z,2.10
2019-02-25T05:12:06.354Z,1.80
2019-02-25T05:14:45.572Z,2.00
2019-02-25T05:17:24.642Z,2.00
2019-02-25T05:20:03.630Z,2.10
2019-02-25T05:22:42.529Z,2.10
2019-02-25T05:25:22.462Z,1.90
2019-02-25T05:28:01.583Z,2.00
2019-02-25T05:30:40.662Z,1.90
2019-02-25T05:33:19.699Z,1.80
2019-02-25T05:35:58.817Z,1.90
2019-02-25T05:38:37.900Z,1.70
2019-02-25T05:41:17.018Z,1.60
2019-02-25T05:43:55.960Z,1.70
2019-02-25T05:46:34.956Z,1.60
2019-02-25T05:49:13.964Z,1.70
2019-02-25T05:51:53.024Z,1.90
2019-02-25T05:54:32.407Z,1.90
2019-02-25T05:57:12.464Z,1.90
2019-02-25T05:59:52.164Z,1.80
2019-02-25T06:02:31.367Z,1.80
2019-02-25T06:05:10.540Z,1.90
2019-02-25T06:07:49.488Z,1.70
2019-02-25T06:10:28.882Z,1.80
2019-02-25T06:13:08.587Z,1.90
2019-02-25T06:15:47.520Z,1.80
2019-02-25T06:18:26.598Z,1.80
2019-02-25T06:21:05.964Z,1.80
2019-02-25T06:23:45.718Z,1.80
2019-02-25T06:26:25.658Z,2.10
2019-02-25T06:29:04.904Z,1.80
2019-02-25T06:31:44.000Z,2.00
2019-02-25T06:34:23.127Z,2.00
2019-02-25T06:37:02.183Z,1.90
2019-02-25T06:39:41.283Z,2.10
2019-02-25T06:42:18.356Z,2.60
2019-02-25T06:45:24.132Z,3.50
2019-02-25T06:48:10.014Z,4.20
2019-02-25T06:50:55.906Z,5.30
2019-02-25T06:53:41.795Z,6.00
2019-02-25T06:56:27.690Z,5.80
2019-02-25T06:59:13.579Z,6.60
2019-02-25T07:01:59.476Z,7.90
2019-02-25T07:08:12.963Z,9.50
2019-02-25T07:11:18.746Z,10.60
2019-02-25T07:17:31.983Z,12.00
2019-02-25T07:20:37.756Z,13.20
2019-02-25T07:23:43.779Z,13.10
2019-02-25T07:26:49.543Z,14.30
2019-02-25T07:29:55.349Z,15.30
2019-02-25T07:33:01.167Z,15.70
2019-02-25T07:36:06.947Z,15.90
2019-02-25T07:39:12.743Z,15.30
2019-02-25T07:42:18.533Z,15.50
2019-02-25T07:45:26.219Z,16.00
2019-02-25T07:57:28.094Z,17.70
2019-02-25T08:00:33.872Z,18.80
2019-02-25T08:09:27.817Z,18.50
2019-02-25T08:12:33.582Z,18.40
2019-02-25T08:15:39.366Z,18.40
2019-02-25T08:18:45.371Z,18.50
2019-02-25T08:24:58.668Z,18.90
2019-02-25T08:28:04.654Z,18.60
2019-02-25T08:31:10.446Z,18.70
2019-02-25T08:37:43.565Z,18.50
2019-02-25T08:40:51.462Z,18.00
2019-02-25T08:46:25.731Z,16.20
2019-02-25T08:49:24.876Z,15.30
2019-02-25T08:52:04.070Z,14.50
2019-02-25T08:54:43.894Z,13.60
2019-02-25T08:57:23.030Z,12.80
2019-02-25T09:00:02.001Z,12.00
2019-02-25T09:02:41.049Z,11.70
2019-02-25T09:05:19.975Z,11.50
2019-02-25T09:07:59.229Z,11.10
2019-02-25T09:10:38.733Z,11.00
2019-02-25T09:13:17.676Z,10.80
2019-02-25T09:15:56.560Z,10.60
2019-02-25T09:18:35.541Z,10.50
2019-02-25T09:21:14.584Z,10.40
2019-02-25T09:23:53.625Z,10.20
2019-02-25T09:26:32.955Z,10.10
2019-02-25T09:29:11.955Z,10.00
2019-02-25T09:31:51.062Z,10.00
2019-02-25T09:34:30.281Z,9.90
2019-02-25T09:37:09.498Z,9.60
2019-02-25T09:39:49.335Z,9.90
2019-02-25T09:42:28.350Z,9.90
2019-02-25T09:45:07.478Z,9.80
2019-02-25T09:47:47.509Z,9.90
2019-02-25T09:50:27.348Z,9.80
2019-02-25T09:53:07.389Z,9.70
2019-02-25T09:55:47.710Z,9.90
2019-02-25T09:58:27.437Z,10.00
2019-02-25T10:01:06.490Z,10.10
2019-02-25T10:03:45.599Z,10.20
2019-02-25T10:06:24.864Z,10.10
2019-02-25T10:09:04.182Z,10.10
2019-02-25T10:11:43.753Z,10.20
2019-02-25T10:14:22.699Z,10.20
2019-02-25T10:17:01.671Z,10.30
2019-02-25T10:19:40.694Z,10.50
2019-02-25T10:22:20.543Z,10.50
2019-02-25T10:24:59.755Z,10.50
2019-02-25T10:27:38.810Z,10.60
2019-02-25T10:30:18.140Z,11.00
2019-02-25T10:32:57.844Z,10.90
2019-02-25T10:35:36.789Z,10.90
2019-02-25T10:38:15.803Z,11.20
2019-02-25T10:40:55.048Z,11.10
2019-02-25T10:43:36.134Z,11.00
2019-02-25T10:46:16.033Z,11.30
2019-02-25T10:48:57.403Z,11.50
2019-02-25T10:51:38.883Z,11.10
2019-02-25T10:54:19.603Z,11.50
2019-02-25T10:56:59.150Z,11.60
2019-02-25T10:59:39.523Z,11.60
2019-02-25T11:02:19.526Z,11.70
2019-02-25T11:04:59.342Z,11.80
2019-02-25T11:07:39.841Z,11.70
2019-02-25T11:10:40.260Z,11.70
2019-02-25T11:13:19.626Z,11.90
2019-02-25T11:15:58.573Z,11.90
2019-02-25T11:18:37.787Z,11.90
2019-02-25T11:21:16.815Z,12.10
2019-02-25T11:23:56.091Z,12.10
2019-02-25T11:26:35.420Z,12.30
2019-02-25T11:29:16.337Z,12.10
2019-02-25T11:31:56.287Z,12.30
2019-02-25T11:34:37.791Z,12.30
2019-02-25T11:37:19.771Z,12.30
2019-02-25T11:40:04.174Z,12.50
2019-02-25T11:42:42.711Z,12.40
2019-02-25T11:45:21.952Z,12.50
2019-02-25T11:48:01.782Z,12.40
2019-02-25T11:50:41.655Z,12.70
2019-02-25T11:53:20.833Z,12.60
2019-02-25T11:56:00.055Z,12.60
2019-02-25T11:58:39.760Z,12.70
2019-02-25T12:01:18.730Z,12.60
2019-02-25T12:03:57.947Z,12.70
2019-02-25T12:06:37.856Z,12.80
2019-02-25T12:09:17.912Z,12.80
2019-02-25T12:11:57.774Z,12.90
2019-02-25T12:14:36.947Z,12.90
2019-02-25T12:17:16.069Z,13.00
2019-02-25T12:19:55.013Z,13.10
2019-02-25T12:22:34.003Z,12.90
2019-02-25T12:25:13.111Z,13.00
2019-02-25T12:27:52.098Z,13.00
2019-02-25T12:30:31.155Z,13.40
2019-02-25T12:33:10.171Z,13.30
2019-02-25T12:35:49.397Z,13.30
2019-02-25T12:38:29.491Z,13.30
2019-02-25T12:41:09.306Z,13.50
2019-02-25T12:43:48.299Z,13.60
2019-02-25T12:46:27.573Z,13.80
2019-02-25T12:49:06.583Z,13.70
2019-02-25T12:51:45.604Z,13.90
2019-02-25T12:54:24.614Z,13.90
2019-02-25T12:57:03.636Z,14.00
2019-02-25T12:59:42.614Z,14.10
2019-02-25T13:02:22.397Z,14.30
2019-02-25T13:05:01.432Z,14.40
2019-02-25T13:07:41.308Z,14.40
2019-02-25T13:10:20.272Z,14.30
2019-02-25T13:12:59.271Z,14.30
2019-02-25T13:15:38.530Z,14.40
2019-02-25T13:18:18.352Z,14.30
2019-02-25T13:20:57.807Z,14.30
2019-02-25T13:23:37.787Z,14.40
2019-02-25T13:26:17.580Z,14.50
2019-02-25T13:28:56.664Z,14.50
2019-02-25T13:31:35.625Z,14.50
2019-02-25T13:34:15.496Z,14.50
2019-02-25T13:36:54.486Z,14.60
2019-02-25T13:39:34.622Z,14.60
2019-02-25T13:42:13.616Z,14.70
2019-02-25T13:44:52.731Z,14.70
2019-02-25T13:47:31.750Z,14.70
2019-02-25T13:50:10.962Z,14.50
2019-02-25T13:52:50.941Z,14.50
2019-02-25T13:55:30.915Z,14.60
2019-02-25T13:58:10.763Z,14.70
2019-02-25T14:00:50.683Z,14.70
2019-02-25T14:03:30.521Z,14.50
2019-02-25T14:06:10.476Z,14.40
2019-02-25T14:08:49.736Z,14.40
2019-02-25T14:11:29.510Z,14.40
2019-02-25T14:14:09.360Z,14.40
2019-02-25T14:16:48.646Z,14.30
2019-02-25T14:19:27.844Z,14.60
2019-02-25T14:22:07.207Z,14.30
2019-02-25T14:24:46.930Z,14.30
2019-02-25T14:27:27.135Z,14.30
2019-02-25T14:30:07.502Z,14.40
2019-02-25T14:32:48.148Z,14.30
2019-02-25T14:35:28.481Z,14.40
2019-02-25T14:38:10.867Z,14.30
2019-02-25T14:40:51.349Z,14.40
2019-02-25T14:43:30.760Z,14.60
2019-02-25T14:46:12.086Z,14.60
2019-02-25T14:48:52.007Z,14.30
2019-02-25T14:51:31.796Z,14.40
2019-02-25T14:54:11.279Z,14.40
2019-02-25T14:56:52.730Z,14.30
2019-02-25T14:59:32.064Z,14.30
2019-02-25T15:02:11.340Z,14.10
2019-02-25T15:04:51.518Z,14.20
2019-02-25T15:07:32.433Z,14.20
2019-02-25T15:10:11.543Z,14.20
2019-02-25T15:12:53.770Z,14.40
2019-02-25T15:15:34.729Z,14.20
2019-02-25T15:18:13.674Z,14.30
2019-02-25T15:20:53.516Z,14.30
2019-02-25T15:23:32.842Z,14.10
2019-02-25T15:26:11.821Z,14.30
2019-02-25T15:28:53.697Z,14.20
2019-02-25T15:31:37.223Z,14.20
2019-02-25T15:34:17.233Z,14.20
2019-02-25T15:36:58.608Z,14.10
2019-02-25T15:39:41.730Z,14.30
2019-02-25T15:42:19.480Z,14.60
2019-02-25T15:44:59.389Z,14.40
2019-02-25T15:47:38.538Z,14.50
2019-02-25T15:50:17.511Z,14.10
2019-02-25T15:52:58.620Z,14.10
2019-02-25T15:55:37.620Z,14.20
2019-02-25T15:58:16.554Z,14.10
2019-02-25T16:00:55.608Z,14.00
2019-02-25T16:03:36.646Z,13.80
2019-02-25T16:06:15.851Z,13.90
2019-02-25T16:08:56.414Z,14.10
2019-02-25T16:11:37.209Z,13.90
2019-02-25T16:14:19.148Z,14.10
2019-02-25T16:16:59.111Z,13.80
2019-02-25T16:19:45.468Z,13.70
2019-02-25T16:22:20.070Z,13.70
2019-02-25T16:25:00.631Z,13.40
2019-02-25T16:27:41.680Z,13.40
2019-02-25T16:30:23.644Z,13.30
2019-02-25T16:33:05.008Z,13.20
2019-02-25T16:35:45.996Z,13.00
2019-02-25T16:38:27.266Z,13.10
2019-02-25T16:41:10.144Z,13.20
2019-02-25T16:43:49.487Z,13.20
2019-02-25T16:46:29.367Z,12.90
2019-02-25T16:49:09.409Z,12.90
2019-02-25T16:51:51.046Z,12.60
2019-02-25T16:54:30.460Z,12.40
2019-02-25T16:57:10.388Z,12.30
2019-02-25T16:59:49.480Z,12.10
2019-02-25T17:02:30.102Z,12.20
2019-02-25T17:05:10.980Z,12.00
2019-02-25T17:07:50.598Z,11.90
2019-02-25T17:10:31.522Z,11.80
2019-02-25T17:13:12.517Z,11.80
2019-02-25T17:15:51.480Z,11.90
2019-02-25T17:18:31.234Z,11.90
2019-02-25T17:21:12.382Z,11.90
2019-02-25T17:23:53.921Z,11.80
2019-02-25T17:26:32.399Z,12.10
2019-02-25T17:29:11.316Z,11.80
2019-02-25T17:31:50.624Z,11.80
2019-02-25T17:34:30.371Z,11.70
2019-02-25T17:37:12.492Z,11.50
2019-02-25T17:39:54.125Z,11.50
2019-02-25T17:42:33.572Z,11.50
2019-02-25T17:45:12.975Z,11.30
2019-02-25T17:47:58.212Z,11.10
2019-02-25T17:50:36.051Z,10.90
2019-02-25T17:53:15.171Z,10.70
2019-02-25T17:55:55.520Z,10.70
2019-02-25T17:58:36.393Z,10.60
2019-02-25T18:01:19.194Z,10.40
2019-02-25T18:03:59.890Z,10.20
2019-02-25T18:06:41.445Z,10.10
2019-02-25T18:09:22.692Z,9.90
2019-02-25T18:12:03.899Z,10.00
2019-02-25T18:14:45.303Z,9.90
2019-02-25T18:17:24.698Z,10.00
2019-02-25T18:20:03.620Z,9.80
2019-02-25T18:22:42.615Z,9.60
2019-02-25T18:25:21.675Z,9.50
2019-02-25T18:28:01.892Z,9.30
2019-02-25T18:30:43.796Z,9.20
2019-02-25T18:33:25.229Z,9.10
2019-02-25T18:36:06.606Z,9.20
2019-02-25T18:38:46.438Z,9.50
2019-02-25T18:41:28.113Z,9.40
2019-02-25T18:44:09.736Z,9.50
2019-02-25T18:46:52.327Z,9.60
2019-02-25T18:49:33.088Z,9.30
2019-02-25T18:52:14.418Z,9.10
2019-02-25T18:54:54.157Z,9.00
2019-02-25T18:57:33.265Z,9.40
2019-02-25T19:00:14.287Z,9.20
2019-02-25T19:02:56.070Z,9.00
2019-02-25T19:05:35.506Z,8.90
2019-02-25T19:08:19.312Z,9.10
2019-02-25T19:10:57.556Z,8.80
2019-02-25T19:13:37.044Z,8.70
2019-02-25T19:16:17.579Z,8.60
2019-02-25T19:18:57.348Z,8.50
2019-02-25T19:21:37.537Z,8.40
2019-02-25T19:24:17.044Z,8.60
2019-02-25T19:26:57.519Z,8.50
2019-02-25T19:29:37.599Z,8.50
2019-02-25T19:32:17.694Z,8.40
2019-02-25T19:34:58.388Z,8.30
2019-02-25T19:37:40.116Z,8.50
2019-02-25T19:40:20.012Z,8.40
2019-02-25T19:43:03.679Z,8.50
2019-02-25T19:45:43.273Z,8.50
2019-02-25T19:48:28.340Z,8.50
2019-02-25T19:51:04.429Z,8.40
2019-02-25T19:56:51.458Z,8.40
2019-02-25T19:59:31.166Z,8.30
2019-02-25T20:02:10.533Z,8.20
2019-02-25T20:04:51.902Z,8.30
2019-02-25T20:07:33.234Z,8.50
2019-02-25T20:10:13.694Z,8.20
2019-02-25T20:12:53.646Z,8.10
2019-02-25T20:15:37.590Z,8.00
2019-02-25T20:18:15.999Z,8.00
2019-02-25T20:20:57.615Z,7.90
2019-02-25T20:23:36.870Z,7.80
2019-02-25T20:26:17.746Z,7.70
2019-02-25T20:28:57.894Z,7.70
2019-02-25T20:31:36.828Z,7.60
2019-02-25T20:34:18.480Z,7.70
2019-02-25T20:36:59.392Z,7.70
2019-02-25T20:39:40.475Z,7.70
2019-02-25T20:42:22.279Z,7.80
2019-02-25T20:45:02.673Z,7.90
2019-02-25T20:47:44.469Z,7.90
2019-02-25T20:50:23.654Z,7.90
2019-02-25T20:53:05.706Z,7.90
2019-02-25T20:55:43.794Z,7.80
2019-02-25T20:58:23.706Z,7.60
2019-02-25T21:01:05.230Z,7.40
2019-02-25T21:03:45.852Z,7.30
2019-02-25T21:06:25.067Z,7.30
2019-02-25T21:09:06.676Z,7.30
2019-02-25T21:11:46.882Z,7.30
2019-02-25T21:14:29.554Z,7.30
2019-02-25T21:17:07.244Z,7.40
2019-02-25T21:19:47.146Z,7.30
2019-02-25T21:22:27.429Z,7.10
2019-02-25T21:25:07.399Z,7.00
2019-02-25T21:27:47.093Z,6.90
2019-02-25T21:33:49.827Z,6.70
2019-02-25T21:36:27.704Z,7.00
2019-02-25T21:39:10.384Z,7.00
2019-02-25T21:41:51.199Z,7.00
2019-02-25T21:44:31.524Z,7.00
2019-02-25T21:47:11.242Z,7.00
2019-02-25T21:49:52.469Z,6.70
2019-02-25T21:52:32.891Z,6.90
2019-02-25T21:55:12.233Z,6.90
2019-02-25T21:57:53.100Z,6.70
2019-02-25T22:00:35.145Z,6.60
2019-02-25T22:03:15.798Z,6.60
2019-02-25T22:05:56.192Z,6.50
2019-02-25T22:08:24.380Z,6.40
2019-02-25T22:10:50.759Z,6.40
2019-02-25T22:13:18.242Z,6.40
2019-02-25T22:15:45.285Z,6.50
2019-02-25T22:18:12.350Z,6.40
2019-02-25T22:20:40.337Z,6.30
2019-02-25T22:23:08.012Z,6.30
2019-02-25T22:25:34.185Z,6.30
2019-02-25T22:28:01.665Z,6.20
2019-02-25T22:30:28.629Z,6.20
2019-02-25T22:32:54.987Z,6.20
2019-02-25T22:35:20.982Z,6.20
2019-02-25T22:37:49.659Z,6.30
2019-02-25T22:40:17.209Z,6.20
2019-02-25T22:42:43.875Z,6.00
2019-02-25T22:45:18.936Z,6.00
2019-02-25T22:47:45.229Z,5.90
2019-02-25T22:50:13.314Z,5.90
2019-02-25T22:52:40.410Z,5.90
2019-02-25T22:55:10.103Z,6.00
2019-02-25T22:57:36.687Z,6.10
2019-02-25T23:00:12.792Z,6.10
2019-02-25T23:02:41.013Z,6.00
2019-02-25T23:05:08.217Z,5.90
2019-02-25T23:07:38.835Z,5.80
2019-02-25T23:10:10.244Z,5.80
2019-02-25T23:12:35.342Z,5.70
2019-02-25T23:15:06.124Z,5.70
2019-02-25T23:17:35.065Z,5.70
2019-02-25T23:20:02.606Z,5.60
2019-02-25T23:22:30.109Z,5.60
2019-02-25T23:24:56.277Z,5.50
2019-02-25T23:27:22.286Z,5.50
2019-02-25T23:29:48.439Z,5.50
2019-02-25T23:32:15.379Z,5.60
2019-02-25T23:34:44.899Z,5.50
2019-02-25T23:37:12.871Z,5.50
2019-02-25T23:39:40.437Z,5.50
2019-02-25T23:42:07.294Z,5.50
2019-02-25T23:44:34.514Z,5.60
2019-02-25T23:47:02.102Z,5.70
2019-02-25T23:49:28.467Z,5.70
2019-02-25T23:51:54.482Z,5.70
2019-02-25T23:54:21.371Z,5.70
2019-02-25T23:56:50.244Z,5.70
2019-02-25T23:59:17.109Z,5.70
